Time;durP1;ratioP1;P1;durP2;ratioP2;P2;SDS_P1;SDS_P2;PMS_P1;PMS_P2;Temp;Humidity;BMP_temperature;BMP_pressure;BME280_temperature;BME280_humidity;BME280_pressure;Samples;Min_cycle;Max_cycle;Signal;HPM_P1;HPM_P2
2022/12/15 00:39:58;;;;;;;32.15;16.35;;;0.50;99.90;;;;;;5108962;29;20034;-61
2022/12/15 00:42:30;;;;;;;32.38;15.98;;;0.60;99.90;;;;;;5122324;29;20293;-59
2022/12/15 00:45:04;;;;;;;30.17;15.80;;;0.50;99.90;;;;;;5090114;29;20425;-61
2022/12/15 00:47:37;;;;;;;30.98;17.95;;;0.60;99.90;;;;;;5116399;29;20225;-60
2022/12/15 01:22:08;;;;;;;28.30;15.30;;;1.20;99.90;;;;;;5153291;28;20285;-60
2022/12/15 01:24:48;;;;;;;32.42;16.20;;;1.30;99.90;;;;;;5165164;28;20029;-61
2022/12/15 01:27:22;;;;;;;30.27;15.70;;;1.40;99.90;;;;;;5138561;28;20053;-61
2022/12/15 01:29:58;;;;;;;33.78;15.90;;;1.40;99.90;;;;;;5150722;28;20051;-61
2022/12/15 01:32:35;;;;;;;27.85;14.27;;;1.40;99.90;;;;;;5133105;28;20038;-61
2022/12/15 01:35:23;;;;;;;34.67;16.73;;;1.50;99.90;;;;;;5148945;28;20041;-61
2022/12/15 01:38:02;;;;;;;36.50;16.40;;;1.50;99.90;;;;;;5182730;28;20330;-60
2022/12/15 01:40:48;;;;;;;31.50;15.50;;;1.50;99.90;;;;;;5167097;28;20204;-61
2022/12/15 01:43:29;;;;;;;26.23;13.88;;;1.60;99.90;;;;;;5152678;28;20049;-60
2022/12/15 01:46:16;;;;;;;32.60;17.00;;;1.60;99.90;;;;;;5150201;28;20046;-61
2022/12/15 01:49:07;;;;;;;33.22;15.65;;;1.60;99.90;;;;;;5148502;28;20049;-61
2022/12/15 01:51:52;;;;;;;33.60;16.80;;;1.60;99.90;;;;;;5182267;28;20037;-61
2022/12/15 01:54:55;;;;;;;30.60;15.85;;;1.60;99.90;;;;;;5167275;28;20025;-60
2022/12/15 01:57:31;;;;;;;32.00;17.75;;;1.60;99.90;;;;;;5182482;28;20045;-61
2022/12/15 02:00:08;;;;;;;33.70;16.90;;;1.60;99.90;;;;;;5166859;28;20042;-60
2022/12/15 02:02:45;;;;;;;33.35;15.85;;;1.60;99.90;;;;;;5133149;28;20334;-60
2022/12/15 02:05:25;;;;;;;34.95;16.58;;;1.60;99.90;;;;;;5171482;28;20053;-60
2022/12/15 02:08:03;;;;;;;31.63;17.85;;;1.60;99.90;;;;;;5166308;28;20038;-61
2022/12/15 02:11:13;;;;;;;28.75;16.45;;;1.50;99.90;;;;;;5166426;28;20589;-60
2022/12/15 02:14:13;;;;;;;31.02;15.98;;;1.40;99.90;;;;;;5184180;28;20315;-60
2022/12/15 02:17:00;;;;;;;35.72;19.23;;;1.40;99.90;;;;;;5180810;28;20045;-61
2022/12/15 02:20:13;;;;;;;41.80;19.17;;;1.40;99.90;;;;;;5134655;28;20034;-61
2022/12/15 02:23:37;;;;;;;34.40;17.58;;;1.40;99.90;;;;;;5182375;28;20056;-60
2022/12/15 02:26:55;;;;;;;37.80;17.10;;;1.30;99.90;;;;;;5166029;28;20042;-60
2022/12/15 02:30:27;;;;;;;29.98;14.95;;;1.40;99.90;;;;;;5162159;28;20189;-60
2022/12/15 02:33:13;;;;;;;30.75;16.27;;;1.50;99.90;;;;;;5081952;29;20032;-61
2022/12/15 02:36:30;;;;;;;33.78;15.98;;;1.60;99.90;;;;;;5079061;29;20036;-61
2022/12/15 02:39:04;;;;;;;28.30;15.90;;;1.60;99.90;;;;;;5099000;29;20036;-60
2022/12/15 02:41:46;;;;;;;33.58;17.13;;;1.50;99.90;;;;;;5053192;29;20362;-59
2022/12/15 02:44:30;;;;;;;32.20;15.60;;;1.50;99.90;;;;;;5058073;29;20048;-60
2022/12/15 02:47:17;;;;;;;;;;;1.60;99.90;;;;;;5080954;29;20108;-61
2022/12/15 02:50:27;;;;;;;30.60;15.07;;;1.50;99.90;;;;;;5096230;29;19911;-60
2022/12/15 02:53:29;;;;;;;31.63;16.45;;;1.50;99.90;;;;;;5078505;29;20046;-60
2022/12/15 02:56:30;;;;;;;31.75;14.48;;;1.40;99.90;;;;;;5120270;28;20049;-61
2022/12/15 02:59:25;;;;;;;37.28;17.63;;;1.50;99.90;;;;;;5085677;29;20032;-60
2022/12/15 03:02:06;;;;;;;36.55;18.27;;;1.40;99.90;;;;;;5114829;28;20042;-60
2022/12/15 03:04:41;;;;;;;33.35;16.60;;;1.20;99.90;;;;;;5144432;28;20057;-60
2022/12/15 03:07:16;;;;;;;40.20;19.23;;;1.20;99.90;;;;;;5168295;28;20297;-60
2022/12/15 03:09:50;;;;;;;30.75;15.55;;;1.30;99.90;;;;;;5184354;28;20044;-61
2022/12/15 03:12:26;;;;;;;32.85;18.67;;;1.30;99.90;;;;;;5167757;28;20050;-60
2022/12/15 03:15:03;;;;;;;35.80;18.33;;;1.40;99.90;;;;;;5185764;28;20025;-60
2022/12/15 03:17:37;;;;;;;36.58;18.33;;;1.40;99.90;;;;;;5182947;28;20067;-60
2022/12/15 03:20:15;;;;;;;38.17;18.33;;;1.40;99.90;;;;;;5182075;28;20521;-61
2022/12/15 03:22:51;;;;;;;31.70;16.25;;;1.30;99.90;;;;;;5165494;28;20372;-61
2022/12/15 03:25:23;;;;;;;35.50;17.67;;;1.20;99.90;;;;;;5164541;28;20495;-60
2022/12/15 03:27:59;;;;;;;38.25;17.58;;;1.20;99.90;;;;;;5129333;28;20026;-59
2022/12/15 03:30:33;;;;;;;34.13;17.38;;;1.10;99.90;;;;;;5152643;28;20056;-61
2022/12/15 03:33:07;;;;;;;34.33;17.15;;;1.00;99.90;;;;;;5166759;28;20034;-60
2022/12/15 03:35:44;;;;;;;38.17;19.55;;;0.90;99.90;;;;;;5184634;28;20454;-61
2022/12/15 03:38:16;;;;;;;33.65;17.55;;;0.90;99.90;;;;;;5151514;28;20038;-60
2022/12/15 03:40:48;;;;;;;28.20;15.93;;;1.00;99.90;;;;;;5168359;28;20045;-62
2022/12/15 03:43:22;;;;;;;36.13;16.73;;;1.00;99.90;;;;;;5168044;28;20033;-62
2022/12/15 03:45:53;;;;;;;;;;;0.90;99.90;;;;;;5168025;28;20040;-61
2022/12/15 03:48:29;;;;;;;38.95;17.58;;;1.10;99.90;;;;;;5167436;28;19917;-61
2022/12/15 03:51:03;;;;;;;39.97;16.83;;;1.10;99.90;;;;;;5167679;28;20049;-61
2022/12/15 03:53:35;;;;;;;32.30;17.27;;;1.00;99.90;;;;;;5183587;28;20406;-61
2022/12/15 03:56:08;;;;;;;28.50;14.90;;;1.10;99.90;;;;;;5162330;28;20038;-60
2022/12/15 03:58:47;;;;;;;35.63;18.35;;;1.20;99.90;;;;;;5149434;28;20044;-60
2022/12/15 04:01:38;;;;;;;35.92;16.98;;;1.20;99.90;;;;;;5168347;28;20386;-61
2022/12/15 04:04:09;;;;;;;28.67;17.02;;;1.20;99.90;;;;;;5163237;28;20641;-61
2022/12/15 04:06:46;;;;;;;36.20;19.50;;;1.20;99.90;;;;;;5132389;28;20046;-61
2022/12/15 04:09:32;;;;;;;36.92;18.58;;;1.20;99.90;;;;;;5191220;28;20045;-60
2022/12/15 04:12:06;;;;;;;36.38;19.02;;;1.00;99.90;;;;;;5170248;28;20030;-60
2022/12/15 04:14:45;;;;;;;35.75;18.63;;;1.00;99.90;;;;;;5167857;28;20040;-60
2022/12/15 04:17:18;;;;;;;40.15;18.13;;;1.00;99.90;;;;;;5167441;28;20537;-60
2022/12/15 04:20:12;;;;;;;33.22;17.25;;;1.00;99.90;;;;;;5184979;28;20053;-60
2022/12/15 04:22:49;;;;;;;40.45;18.73;;;1.10;99.90;;;;;;5185948;28;20029;-60
2022/12/15 05:31:46;;;;;;;40.60;20.85;;;0.90;99.90;;;;;;5181765;28;20451;-61
2022/12/15 05:34:20;;;;;;;43.58;20.33;;;0.80;99.90;;;;;;5163585;28;20014;-61
2022/12/15 05:37:03;;;;;;;39.38;21.38;;;0.80;99.90;;;;;;5142422;28;20034;-61
2022/12/15 05:39:39;;;;;;;48.95;21.20;;;0.80;99.90;;;;;;5176045;28;20053;-61
2022/12/15 05:42:18;;;;;;;41.88;21.08;;;0.90;99.90;;;;;;5167419;28;20072;-60
2022/12/15 05:44:52;;;;;;;44.80;19.80;;;0.80;99.90;;;;;;5164834;28;20044;-60
2022/12/15 05:47:26;;;;;;;50.78;21.60;;;0.80;99.90;;;;;;5128700;28;20030;-60
2022/12/15 05:49:58;;;;;;;39.97;20.58;;;0.90;99.90;;;;;;5157927;28;20046;-60
2022/12/15 05:52:32;;;;;;;47.10;22.52;;;0.90;99.90;;;;;;5164776;28;20026;-61
2022/12/15 05:55:07;;;;;;;52.97;21.80;;;0.90;99.90;;;;;;5183192;28;20021;-61
2022/12/15 05:57:42;;;;;;;45.53;21.92;;;0.90;99.90;;;;;;5181107;28;20076;-60
2022/12/15 06:00:20;;;;;;;47.03;20.40;;;0.90;99.90;;;;;;5181897;28;20032;-60
2022/12/15 06:02:59;;;;;;;41.20;20.52;;;0.90;99.90;;;;;;5179911;28;20052;-60
2022/12/15 06:05:40;;;;;;;46.40;22.67;;;1.00;99.90;;;;;;5154579;28;20057;-60
2022/12/15 06:08:12;;;;;;;46.40;22.65;;;0.90;99.90;;;;;;5176743;28;20504;-59
2022/12/15 06:10:59;;;;;;;50.55;23.38;;;0.90;99.90;;;;;;5174759;28;20052;-60
2022/12/15 06:13:37;;;;;;;51.53;25.13;;;0.90;99.90;;;;;;5158070;28;20037;-59
2022/12/15 06:16:26;;;;;;;52.35;25.05;;;0.90;99.90;;;;;;5164931;28;20331;-60
2022/12/15 06:19:03;;;;;;;48.22;23.33;;;0.90;99.90;;;;;;5181474;28;20053;-60
2022/12/15 06:21:35;;;;;;;42.78;20.83;;;1.00;99.90;;;;;;5146280;28;20048;-59
2022/12/15 06:24:08;;;;;;;50.95;21.42;;;0.90;99.90;;;;;;5163458;28;20061;-60
2022/12/15 06:26:40;;;;;;;42.60;22.27;;;1.00;99.90;;;;;;5163819;28;20038;-59
2022/12/15 06:29:18;;;;;;;44.10;20.13;;;0.90;99.90;;;;;;5162828;28;20253;-59
2022/12/15 06:31:52;;;;;;;31.67;15.63;;;1.00;99.90;;;;;;5182472;28;20042;-60
2022/12/15 06:34:25;;;;;;;45.00;19.60;;;1.20;99.90;;;;;;5186457;28;20044;-59
2022/12/15 06:36:59;;;;;;;41.80;19.50;;;1.20;99.90;;;;;;5186784;28;20056;-60
2022/12/15 06:39:40;;;;;;;33.38;17.15;;;1.40;99.90;;;;;;5169674;28;20546;-61
2022/12/15 06:42:30;;;;;;;42.05;20.98;;;1.40;99.90;;;;;;5181705;28;20677;-60
2022/12/15 06:45:16;;;;;;;50.85;21.50;;;1.40;99.90;;;;;;5149241;28;20258;-60
2022/12/15 06:47:53;;;;;;;41.38;18.70;;;1.30;99.90;;;;;;5157914;28;20502;-60
2022/12/15 06:50:24;;;;;;;44.35;21.63;;;1.20;99.90;;;;;;5185230;28;20030;-60
2022/12/15 06:52:58;;;;;;;42.05;19.30;;;1.10;99.90;;;;;;5182850;28;20034;-59
2022/12/15 06:55:39;;;;;;;38.25;18.58;;;1.10;99.90;;;;;;5164894;28;20061;-59
2022/12/15 06:58:21;;;;;;;37.25;19.17;;;1.10;99.90;;;;;;5134813;28;20058;-60
2022/12/15 07:01:06;;;;;;;37.15;19.67;;;1.00;99.90;;;;;;5184932;28;20041;-60
2022/12/15 07:03:46;;;;;;;42.15;17.40;;;1.00;99.90;;;;;;5151731;28;20559;-58
2022/12/15 07:06:20;;;;;;;36.00;19.83;;;0.90;99.90;;;;;;5157259;28;20060;-62
2022/12/15 07:09:00;;;;;;;33.50;18.17;;;0.90;99.90;;;;;;5161608;28;20038;-63
2022/12/15 07:11:37;;;;;;;38.45;19.90;;;1.00;99.90;;;;;;5148372;28;20045;-60
2022/12/15 07:14:17;;;;;;;39.13;18.83;;;1.00;99.90;;;;;;5167468;28;20490;-59
2022/12/15 07:16:58;;;;;;;34.60;18.60;;;0.90;99.90;;;;;;5166816;28;20375;-60
2022/12/15 07:19:37;;;;;;;36.97;17.75;;;0.90;99.90;;;;;;5165828;28;20053;-61
2022/12/15 07:22:13;;;;;;;31.92;16.67;;;0.90;99.90;;;;;;5166950;28;20048;-59
2022/12/15 07:24:45;;;;;;;39.70;18.00;;;0.80;99.90;;;;;;5151614;28;20029;-60
2022/12/15 07:27:22;;;;;;;46.85;17.52;;;0.90;99.90;;;;;;5150841;28;20056;-61
2022/12/15 07:29:53;;;;;;;32.60;17.42;;;0.90;99.90;;;;;;5166217;28;20056;-59
2022/12/15 07:32:30;;;;;;;38.60;16.52;;;0.90;99.90;;;;;;5167978;28;20045;-60
2022/12/15 07:35:04;;;;;;;34.47;17.58;;;0.90;99.90;;;;;;5167995;28;20048;-59
2022/12/15 07:37:36;;;;;;;30.77;16.35;;;0.90;99.90;;;;;;5184180;28;20476;-61
2022/12/15 07:40:10;;;;;;;29.67;14.77;;;1.00;99.90;;;;;;5183576;28;20037;-60
2022/12/15 07:42:42;;;;;;;27.95;14.57;;;1.00;99.90;;;;;;5166311;28;20116;-59
2022/12/15 07:45:19;;;;;;;33.58;15.43;;;1.00;99.90;;;;;;5132671;28;20230;-59
2022/12/15 07:47:55;;;;;;;29.58;14.85;;;1.00;99.90;;;;;;5181006;28;20056;-63
2022/12/15 07:50:28;;;;;;;27.10;13.65;;;1.10;99.90;;;;;;5175965;28;20026;-61
2022/12/15 07:53:04;;;;;;;29.60;15.40;;;1.20;99.90;;;;;;5178454;28;20038;-61
2022/12/15 07:55:36;;;;;;;32.97;15.20;;;1.10;99.90;;;;;;5167912;28;20056;-60
2022/12/15 07:58:08;;;;;;;32.08;16.73;;;1.20;99.90;;;;;;5151992;28;20033;-60
2022/12/15 08:00:46;;;;;;;30.23;15.90;;;1.20;99.90;;;;;;5162025;28;20058;-60
2022/12/15 08:03:21;;;;;;;41.95;13.90;;;1.30;99.90;;;;;;5135378;28;20060;-61
2022/12/15 08:05:57;;;;;;;31.60;14.73;;;1.50;99.90;;;;;;5158105;28;20049;-59
2022/12/15 08:08:32;;;;;;;32.15;16.38;;;1.70;99.90;;;;;;5151341;28;20038;-64
2022/12/15 08:11:20;;;;;;;48.10;16.15;;;1.70;99.90;;;;;;5183817;28;20042;-60
2022/12/15 08:13:54;;;;;;;32.20;17.40;;;1.70;99.90;;;;;;5167965;28;20484;-61
2022/12/15 08:16:33;;;;;;;36.50;16.98;;;1.70;99.90;;;;;;5166640;28;20060;-61
2022/12/15 08:19:05;;;;;;;29.85;15.55;;;1.60;99.90;;;;;;5142925;28;20038;-60
2022/12/15 08:21:40;;;;;;;31.08;17.25;;;1.60;99.90;;;;;;5132891;28;20038;-60
2022/12/15 08:24:20;;;;;;;33.13;14.38;;;1.70;99.90;;;;;;5179642;28;20052;-62
2022/12/15 08:26:51;;;;;;;29.95;15.82;;;1.60;99.90;;;;;;5135545;28;20502;-59
2022/12/15 08:29:25;;;;;;;32.97;15.93;;;1.50;99.90;;;;;;5163587;28;20242;-61
2022/12/15 08:32:00;;;;;;;;;;;1.50;99.90;;;;;;5181725;28;20040;-61
2022/12/15 08:34:35;;;;;;;35.05;15.95;;;1.60;99.90;;;;;;5134015;28;19928;-61
2022/12/15 08:37:07;;;;;;;28.45;14.57;;;1.70;99.90;;;;;;5144892;28;20546;-63
2022/12/15 08:39:39;;;;;;;33.67;17.17;;;1.70;99.90;;;;;;5148858;28;20605;-61
2022/12/15 08:42:17;;;;;;;32.20;16.35;;;1.60;99.90;;;;;;5147590;28;20052;-60
2022/12/15 08:44:51;;;;;;;40.42;17.35;;;1.60;99.90;;;;;;5122846;28;20064;-62
2022/12/15 08:47:22;;;;;;;30.00;16.48;;;1.60;99.90;;;;;;5155395;28;20269;-62
2022/12/15 08:49:58;;;;;;;36.22;17.60;;;1.70;99.90;;;;;;5142243;28;20077;-61
2022/12/15 08:52:30;;;;;;;27.63;15.38;;;1.70;99.90;;;;;;5182257;28;20053;-63
2022/12/15 08:55:01;;;;;;;34.45;16.30;;;1.90;99.90;;;;;;5165073;28;20029;-62
2022/12/15 08:57:36;;;;;;;33.15;17.33;;;2.20;99.90;;;;;;5161128;28;20141;-63
2022/12/15 09:00:14;;;;;;;;;;;2.20;99.90;;;;;;5161982;28;20044;-63
2022/12/15 09:02:52;;;;;;;36.83;16.20;;;2.30;99.90;;;;;;5188727;28;19914;-66
2022/12/15 09:05:24;;;;;;;30.38;15.50;;;2.40;99.90;;;;;;5135724;28;20053;-60
2022/12/15 09:07:59;;;;;;;31.30;15.45;;;2.50;99.90;;;;;;5158307;28;20519;-63
2022/12/15 09:10:34;;;;;;;27.88;14.05;;;2.60;99.90;;;;;;5128774;28;20042;-62
2022/12/15 09:13:06;;;;;;;28.65;14.27;;;2.80;99.90;;;;;;5170907;28;20034;-61
2022/12/15 09:15:42;;;;;;;30.23;15.82;;;3.00;99.90;;;;;;5163761;28;20352;-62
2022/12/15 09:18:15;;;;;;;32.50;15.25;;;3.20;99.90;;;;;;5148288;28;20046;-62
2022/12/15 09:20:50;;;;;;;34.75;15.43;;;3.40;99.90;;;;;;5160467;28;20045;-62
2022/12/15 09:23:28;;;;;;;30.83;16.63;;;3.60;99.90;;;;;;5128863;28;20049;-63
2022/12/15 09:26:06;;;;;;;29.52;14.93;;;3.50;99.90;;;;;;5165313;28;20543;-62
2022/12/15 09:28:46;;;;;;;27.35;14.52;;;3.60;99.90;;;;;;5164112;28;20018;-62
2022/12/15 09:31:24;;;;;;;38.85;15.52;;;3.70;99.90;;;;;;5164501;28;20496;-65
2022/12/15 09:33:59;;;;;;;31.08;16.08;;;3.60;99.90;;;;;;5180518;28;20072;-62
2022/12/15 09:36:31;;;;;;;;;;;3.60;99.90;;;;;;5149612;28;20040;-62
2022/12/15 09:39:07;;;;;;;54.80;18.02;;;3.40;99.90;;;;;;5163928;28;19921;-62
2022/12/15 09:41:54;;;;;;;29.30;15.73;;;3.00;99.90;;;;;;5158414;28;20040;-61
2022/12/15 09:44:29;;;;;;;35.08;17.65;;;3.10;99.90;;;;;;5145381;28;20472;-61
2022/12/15 09:47:18;;;;;;;30.45;16.38;;;2.90;99.90;;;;;;5163520;28;20045;-63
2022/12/15 09:49:50;;;;;;;37.95;18.90;;;2.80;99.90;;;;;;5170523;28;20571;-63
2022/12/15 09:52:34;;;;;;;33.60;16.60;;;2.80;99.90;;;;;;5180088;28;20076;-63
2022/12/15 09:55:22;;;;;;;33.50;17.50;;;3.00;99.90;;;;;;5131939;28;20496;-63
2022/12/15 09:58:15;;;;;;;32.13;16.60;;;3.10;99.90;;;;;;5146803;28;20037;-64
2022/12/15 10:01:16;;;;;;;33.88;16.30;;;3.00;99.90;;;;;;5164297;28;20041;-63
2022/12/15 10:04:06;;;;;;;35.63;17.23;;;3.10;99.90;;;;;;5152240;28;20326;-65
2022/12/15 10:06:59;;;;;;;35.95;16.90;;;3.10;99.90;;;;;;5136775;28;20046;-64
2022/12/15 10:09:36;;;;;;;35.95;16.45;;;2.70;99.90;;;;;;5144243;28;20038;-64
2022/12/15 10:12:21;;;;;;;32.78;18.15;;;2.40;99.90;;;;;;5163497;28;20060;-63
2022/12/15 10:15:27;;;;;;;35.50;17.80;;;2.20;99.90;;;;;;5163793;28;20041;-63
2022/12/15 10:18:18;;;;;;;34.45;18.17;;;2.30;99.90;;;;;;5164491;28;20028;-63
2022/12/15 10:21:01;;;;;;;37.00;19.08;;;2.50;99.90;;;;;;5162949;28;20041;-64
2022/12/15 10:23:35;;;;;;;34.35;17.58;;;2.50;99.90;;;;;;5180758;28;20032;-64
2022/12/15 10:26:30;;;;;;;36.45;17.67;;;2.40;99.90;;;;;;5180408;28;20038;-63
2022/12/15 10:29:36;;;;;;;35.55;18.30;;;2.40;99.90;;;;;;5168196;28;20036;-64
2022/12/15 10:32:48;;;;;;;37.75;17.95;;;2.30;99.90;;;;;;5179872;28;20052;-63
2022/12/15 10:35:31;;;;;;;37.47;17.95;;;2.60;99.90;;;;;;5180932;28;20522;-61
2022/12/15 10:38:16;;;;;;;40.42;18.27;;;2.60;99.90;;;;;;5164136;28;20044;-64
2022/12/15 10:41:01;;;;;;;37.90;18.98;;;2.50;99.90;;;;;;5144520;28;20042;-63
2022/12/15 10:43:50;;;;;;;36.40;19.73;;;2.60;99.90;;;;;;5128413;28;20038;-64
2022/12/15 10:46:30;;;;;;;36.95;17.75;;;2.60;99.90;;;;;;5145020;28;20049;-63
2022/12/15 10:49:08;;;;;;;42.53;20.65;;;2.60;99.90;;;;;;5151237;28;20464;-63
2022/12/15 10:52:01;;;;;;;35.55;17.92;;;2.60;99.90;;;;;;5179676;28;20048;-65
2022/12/15 10:54:47;;;;;;;43.47;19.40;;;2.60;99.90;;;;;;5164223;28;20118;-63
2022/12/15 10:57:23;;;;;;;38.40;18.90;;;2.50;99.90;;;;;;5183484;28;20069;-63
2022/12/15 11:00:18;;;;;;;46.95;21.08;;;2.50;99.90;;;;;;5161843;28;20026;-62
2022/12/15 11:02:49;;;;;;;41.70;21.75;;;2.50;99.90;;;;;;5168110;28;20451;-62
2022/12/15 11:05:24;;;;;;;39.97;20.55;;;2.50;99.90;;;;;;5154719;28;20351;-63
2022/12/15 11:08:13;;;;;;;;;;;2.60;99.90;;;;;;5148015;28;20083;-62
2022/12/15 11:14:18;;;;;;;43.67;20.58;;;2.30;99.90;;;;;;5146503;28;20036;-64
2022/12/15 11:17:01;;;;;;;36.08;19.33;;;2.30;99.90;;;;;;5143636;28;20043;-62
2022/12/15 11:19:42;;;;;;;46.70;20.38;;;2.20;99.90;;;;;;5138002;28;20038;-63
2022/12/15 11:22:34;;;;;;;40.53;20.55;;;2.00;99.90;;;;;;5179035;28;20042;-62
2022/12/15 11:26:04;;;;;;;43.42;21.50;;;2.10;99.90;;;;;;5157568;28;20041;-63
2022/12/15 11:28:51;;;;;;;45.53;21.55;;;2.10;99.90;;;;;;5163694;28;20030;-63
2022/12/15 11:31:40;;;;;;;50.85;24.10;;;2.00;99.90;;;;;;5183115;28;20183;-64
2022/12/15 11:34:23;;;;;;;45.90;23.70;;;2.00;99.90;;;;;;5184759;28;20044;-65
2022/12/15 11:37:38;;;;;;;49.67;22.02;;;2.10;99.90;;;;;;5168144;28;20033;-62
2022/12/15 11:40:42;;;;;;;62.33;24.60;;;2.10;99.90;;;;;;5151159;28;20056;-63
2022/12/15 11:43:13;;;;;;;45.97;21.90;;;2.00;99.90;;;;;;5185970;28;20056;-63
2022/12/15 11:46:16;;;;;;;48.92;22.73;;;2.20;99.90;;;;;;5188141;28;20369;-63
2022/12/15 11:49:18;;;;;;;47.60;24.02;;;2.20;99.90;;;;;;5177304;28;20044;-68
2022/12/15 11:52:23;;;;;;;57.85;24.33;;;2.10;99.90;;;;;;5164801;28;20054;-64
2022/12/15 11:55:19;;;;;;;50.15;24.85;;;2.30;99.90;;;;;;5163736;28;20039;-63
2022/12/15 11:58:21;;;;;;;55.85;22.50;;;2.30;99.90;;;;;;5175667;28;20480;-62
2022/12/15 12:01:28;;;;;;;58.25;25.08;;;2.40;99.90;;;;;;5150740;28;20041;-63
2022/12/15 12:04:22;;;;;;;49.05;20.48;;;2.50;99.90;;;;;;5184066;28;20043;-63
2022/12/15 12:07:38;;;;;;;58.20;28.08;;;2.40;99.90;;;;;;5140035;28;20060;-62
2022/12/15 12:10:32;;;;;;;49.83;23.33;;;2.40;99.90;;;;;;5166744;28;20048;-62
2022/12/15 12:13:35;;;;;;;52.95;22.08;;;2.30;99.90;;;;;;5183004;28;20060;-66
2022/12/15 12:16:38;;;;;;;48.05;23.58;;;2.30;99.90;;;;;;5166870;28;20034;-61
2022/12/15 12:19:54;;;;;;;49.05;23.92;;;2.20;99.90;;;;;;5183585;28;20033;-61
2022/12/15 12:22:39;;;;;;;48.35;21.65;;;1.90;99.90;;;;;;5180295;28;20245;-62
2022/12/15 12:25:21;;;;;;;49.33;21.48;;;1.90;99.90;;;;;;5166787;28;20042;-63
2022/12/15 12:28:55;;;;;;;50.42;21.52;;;2.00;99.90;;;;;;5165516;28;20042;-63
2022/12/15 12:32:14;;;;;;;45.50;21.77;;;2.10;99.90;;;;;;5049999;29;20133;-63
2022/12/15 12:35:23;;;;;;;43.15;19.65;;;2.30;99.90;;;;;;5082839;29;20653;-66
2022/12/15 12:38:01;;;;;;;48.33;20.35;;;2.40;99.90;;;;;;5099022;29;20332;-63
2022/12/15 12:40:50;;;;;;;41.97;20.17;;;2.50;99.90;;;;;;5075920;29;20454;-62
2022/12/15 12:43:33;;;;;;;47.55;21.40;;;2.60;99.90;;;;;;5094020;29;20051;-62
2022/12/15 12:46:28;;;;;;;41.83;20.90;;;2.70;99.90;;;;;;5100224;29;20167;-65
2022/12/15 12:49:06;;;;;;;;;;;2.70;99.90;;;;;;5085145;29;20561;-64
2022/12/15 12:51:50;;;;;;;50.65;23.10;;;2.70;99.90;;;;;;5112247;29;20041;-64
2022/12/15 12:54:42;;;;;;;50.38;24.05;;;2.60;99.90;;;;;;5079752;29;20247;-64
2022/12/15 12:57:13;;;;;;;58.42;23.63;;;2.60;99.90;;;;;;5068142;29;20051;-62
2022/12/15 13:00:11;;;;;;;50.42;21.95;;;2.60;99.90;;;;;;5100724;29;20039;-63
2022/12/15 13:02:53;;;;;;;46.45;22.50;;;2.50;99.90;;;;;;5109357;28;20401;-62
2022/12/15 13:05:32;;;;;;;51.63;23.42;;;2.50;99.90;;;;;;5074629;28;20364;-62
2022/12/15 13:08:07;;;;;;;46.58;23.70;;;2.60;99.90;;;;;;5162640;28;20021;-63
2022/12/15 13:10:45;;;;;;;50.63;24.05;;;2.40;99.90;;;;;;5179601;28;20044;-63
2022/12/15 13:13:31;;;;;;;56.63;24.13;;;2.50;99.90;;;;;;5163485;28;20052;-63
2022/12/15 13:16:26;;;;;;;48.92;23.75;;;2.50;99.90;;;;;;5150736;28;20073;-63
2022/12/15 13:19:05;;;;;;;46.72;22.77;;;2.50;99.90;;;;;;5180887;28;20063;-63
2022/12/15 13:21:43;;;;;;;55.97;25.13;;;2.50;99.90;;;;;;5164631;28;20047;-62
2022/12/15 13:24:36;;;;;;;49.45;22.95;;;2.40;99.90;;;;;;5176618;28;20038;-62
2022/12/15 13:27:07;;;;;;;44.00;23.25;;;2.30;99.90;;;;;;5151332;28;20045;-62
2022/12/15 13:30:20;;;;;;;45.78;24.20;;;2.20;99.90;;;;;;5164966;28;20037;-63
2022/12/15 13:33:18;;;;;;;55.45;24.00;;;2.20;99.90;;;;;;5173392;28;20079;-63
2022/12/15 13:35:54;;;;;;;51.83;27.17;;;2.30;99.90;;;;;;5178409;28;20041;-64
2022/12/15 13:38:56;;;;;;;54.00;25.85;;;2.10;99.90;;;;;;5164150;28;20512;-64
2022/12/15 13:41:33;;;;;;;50.30;23.35;;;2.10;99.90;;;;;;5163722;28;20566;-65
2022/12/15 13:44:22;;;;;;;54.78;26.10;;;2.10;99.90;;;;;;5161258;28;20358;-64
2022/12/15 13:47:16;;;;;;;47.40;23.83;;;1.90;99.90;;;;;;5147961;28;20395;-64
2022/12/15 13:49:59;;;;;;;66.57;33.78;;;2.00;99.90;;;;;;5180456;28;20042;-65
2022/12/15 13:52:52;;;;;;;53.92;26.55;;;2.00;99.90;;;;;;5182498;28;20527;-63
2022/12/15 13:55:37;;;;;;;59.85;27.88;;;1.90;99.90;;;;;;5147832;28;20053;-64
2022/12/15 13:58:08;;;;;;;60.78;29.77;;;1.90;99.90;;;;;;5178449;28;20254;-63
2022/12/15 14:00:57;;;;;;;63.67;28.70;;;1.90;99.90;;;;;;5163646;28;20046;-63
2022/12/15 14:03:31;;;;;;;58.40;27.05;;;1.90;99.90;;;;;;5182603;28;20327;-62
2022/12/15 14:06:16;;;;;;;55.40;26.95;;;1.90;99.90;;;;;;5138996;28;20056;-63
2022/12/15 14:08:53;;;;;;;52.80;26.35;;;1.80;99.90;;;;;;5146701;28;20034;-64
2022/12/15 14:11:31;;;;;;;67.03;28.30;;;1.90;99.90;;;;;;5144254;28;20050;-63
2022/12/15 14:14:04;;;;;;;60.22;28.15;;;1.80;99.90;;;;;;5147312;28;20044;-64
2022/12/15 14:16:43;;;;;;;66.78;31.83;;;1.70;99.90;;;;;;5180059;28;20566;-63
2022/12/15 14:19:23;;;;;;;61.72;28.08;;;1.70;99.90;;;;;;5148404;28;20060;-63
2022/12/15 14:22:01;;;;;;;59.60;26.65;;;1.70;99.90;;;;;;5165219;28;20335;-64
2022/12/15 14:24:45;;;;;;;62.15;29.20;;;1.80;99.90;;;;;;5164172;28;20038;-64
2022/12/15 14:27:37;;;;;;;57.97;27.42;;;1.70;99.90;;;;;;5180306;28;20061;-64
2022/12/15 14:30:18;;;;;;;58.13;28.92;;;1.70;99.90;;;;;;5181163;28;20044;-62
2022/12/15 14:33:21;;;;;;;57.97;28.25;;;1.50;99.90;;;;;;5179572;28;20045;-64
2022/12/15 14:36:01;;;;;;;56.70;27.23;;;1.50;99.90;;;;;;5119644;28;20417;-63
2022/12/15 14:39:00;;;;;;;61.97;26.85;;;1.50;99.90;;;;;;5180673;28;20044;-64
2022/12/15 14:41:42;;;;;;;63.75;27.65;;;1.50;99.90;;;;;;5148344;28;20238;-64
2022/12/15 14:44:30;;;;;;;57.78;27.48;;;1.50;99.90;;;;;;5164378;28;20026;-63
2022/12/15 14:47:21;;;;;;;58.58;24.73;;;1.50;99.90;;;;;;5148050;28;20045;-64
2022/12/15 14:50:00;;;;;;;64.07;29.50;;;1.60;99.90;;;;;;5151806;28;20242;-63
2022/12/15 14:52:44;;;;;;;64.20;27.48;;;1.40;99.90;;;;;;5181564;28;20045;-64
2022/12/15 14:55:22;;;;;;;62.05;30.55;;;1.50;99.90;;;;;;5148804;28;20052;-64
2022/12/15 14:57:59;;;;;;;64.20;28.35;;;1.30;99.90;;;;;;5167621;28;20164;-63
2022/12/15 15:00:50;;;;;;;61.42;27.73;;;1.40;99.90;;;;;;5185025;28;20049;-64
2022/12/15 15:03:49;;;;;;;65.68;28.90;;;1.50;99.90;;;;;;5163899;28;20054;-64
2022/12/15 15:06:36;;;;;;;75.45;29.00;;;1.50;99.90;;;;;;5145932;28;20056;-63
2022/12/15 15:09:24;;;;;;;78.03;29.65;;;1.40;99.90;;;;;;5166506;28;20034;-61
2022/12/15 15:12:18;;;;;;;65.03;28.65;;;1.30;99.90;;;;;;5152024;28;20353;-63
2022/12/15 15:15:13;;;;;;;65.57;28.50;;;1.30;99.90;;;;;;5149197;28;20126;-63
2022/12/15 15:17:53;;;;;;;62.10;26.10;;;1.20;99.90;;;;;;5168223;28;20243;-62
2022/12/15 15:20:34;;;;;;;72.95;29.08;;;1.20;99.90;;;;;;5166583;28;20060;-64
2022/12/15 15:23:09;;;;;;;71.20;29.25;;;1.10;99.90;;;;;;5179135;28;20022;-65
2022/12/15 15:25:53;;;;;;;59.33;27.00;;;1.20;99.90;;;;;;5167571;28;20040;-65
2022/12/15 15:28:38;;;;;;;71.95;28.20;;;1.10;99.90;;;;;;5182387;28;20330;-62
2022/12/15 15:31:36;;;;;;;73.80;29.30;;;1.00;99.90;;;;;;5167018;28;20045;-62
2022/12/15 15:34:12;;;;;;;63.97;30.88;;;1.00;99.90;;;;;;5164143;28;20037;-62
2022/12/15 15:36:48;;;;;;;75.43;30.80;;;1.10;99.90;;;;;;5155906;28;20125;-62
2022/12/15 15:39:24;;;;;;;76.20;33.08;;;1.10;99.90;;;;;;5167916;28;20044;-64
2022/12/15 15:42:05;;;;;;;75.85;31.08;;;1.10;99.90;;;;;;5167836;28;20040;-62
2022/12/15 15:44:42;;;;;;;66.80;29.38;;;1.10;99.90;;;;;;5167990;28;20032;-64
2022/12/15 15:47:29;;;;;;;64.47;27.88;;;1.10;99.90;;;;;;5149791;28;20042;-63
2022/12/15 15:50:00;;;;;;;75.70;32.40;;;1.10;99.90;;;;;;5197044;28;20029;-62
2022/12/15 15:52:34;;;;;;;66.53;30.30;;;1.10;99.90;;;;;;5183744;28;20040;-63
2022/12/15 15:55:13;;;;;;;71.35;30.45;;;1.20;99.90;;;;;;5166815;28;20036;-63
2022/12/15 15:57:47;;;;;;;67.55;28.25;;;1.10;99.90;;;;;;5175808;28;20566;-62
2022/12/15 16:00:23;;;;;;;72.57;31.70;;;1.20;99.90;;;;;;5149437;28;20361;-63
2022/12/15 16:02:57;;;;;;;75.32;29.60;;;1.20;99.90;;;;;;5179144;28;20034;-63
2022/12/15 16:05:31;;;;;;;73.80;31.27;;;1.30;99.90;;;;;;5151168;28;20071;-63
2022/12/15 16:08:15;;;;;;;73.72;30.08;;;1.20;99.90;;;;;;5174739;28;20045;-65
2022/12/15 16:10:52;;;;;;;70.50;29.10;;;1.20;99.90;;;;;;5190146;28;20024;-64
2022/12/15 16:13:23;;;;;;;73.15;29.40;;;1.30;99.90;;;;;;5165361;28;20033;-63
2022/12/15 16:16:00;;;;;;;74.78;31.20;;;1.30;99.90;;;;;;5165486;28;20041;-63
2022/12/15 16:18:43;;;;;;;70.72;30.65;;;1.20;99.90;;;;;;5159540;28;20234;-65